sensor_id;sensor_type;location;lat;lon;timestamp;P1;durP1;ratioP1;P2;durP2;ratioP2
70829;SDS011;58451;51.550;7.208;2023-04-03T00:00:36;23.00;;;9.90;;
70829;SDS011;58451;51.550;7.208;2023-04-03T00:02:08;22.70;;;9.90;;
70829;SDS011;58451;51.550;7.208;2023-04-03T00:03:40;22.90;;;9.60;;
70829;SDS011;58451;51.550;7.208;2023-04-03T00:05:13;21.10;;;9.70;;
70829;SDS011;58451;51.550;7.208;2023-04-03T00:06:44;22.70;;;10.20;;
70829;SDS011;58451;51.550;7.208;2023-04-03T00:08:17;22.20;;;10.40;;
70829;SDS011;58451;51.550;7.208;2023-04-03T00:09:48;22.20;;;9.20;;
70829;SDS011;58451;51.550;7.208;2023-04-03T00:11:20;22.90;;;9.70;;
70829;SDS011;58451;51.550;7.208;2023-04-03T00:12:53;24.00;;;10.30;;
70829;SDS011;58451;51.550;7.208;2023-04-03T00:14:25;21.00;;;9.40;;
70829;SDS011;58451;51.550;7.208;2023-04-03T00:15:59;24.50;;;9.70;;
70829;SDS011;58451;51.550;7.208;2023-04-03T00:17:31;21.90;;;8.90;;
70829;SDS011;58451;51.550;7.208;2023-04-03T00:19:03;18.60;;;8.20;;
70829;SDS011;58451;51.550;7.208;2023-04-03T00:20:35;20.70;;;9.10;;
70829;SDS011;58451;51.550;7.208;2023-04-03T00:22:07;21.10;;;8.80;;
70829;SDS011;58451;51.550;7.208;2023-04-03T00:23:39;21.30;;;9.10;;
70829;SDS011;58451;51.550;7.208;2023-04-03T00:25:11;19.70;;;8.30;;
70829;SDS011;58451;51.550;7.208;2023-04-03T00:26:43;20.80;;;9.20;;
70829;SDS011;58451;51.550;7.208;2023-04-03T00:28:14;21.30;;;9.00;;
70829;SDS011;58451;51.550;7.208;2023-04-03T00:29:46;21.30;;;9.10;;
70829;SDS011;58451;51.550;7.208;2023-04-03T00:31:18;22.70;;;9.70;;
70829;SDS011;58451;51.550;7.208;2023-04-03T00:32:51;23.90;;;9.80;;
70829;SDS011;58451;51.550;7.208;2023-04-03T00:34:24;24.50;;;9.90;;
70829;SDS011;58451;51.550;7.208;2023-04-03T00:35:56;20.90;;;9.30;;
70829;SDS011;58451;51.550;7.208;2023-04-03T00:37:28;20.10;;;9.50;;
70829;SDS011;58451;51.550;7.208;2023-04-03T00:39:01;20.30;;;8.80;;
70829;SDS011;58451;51.550;7.208;2023-04-03T00:40:38;22.10;;;9.80;;
70829;SDS011;58451;51.550;7.208;2023-04-03T00:42:13;20.70;;;9.30;;
70829;SDS011;58451;51.550;7.208;2023-04-03T00:43:45;23.70;;;9.80;;
70829;SDS011;58451;51.550;7.208;2023-04-03T00:45:37;23.00;;;9.40;;
70829;SDS011;58451;51.550;7.208;2023-04-03T00:47:13;19.60;;;9.00;;
70829;SDS011;58451;51.550;7.208;2023-04-03T00:48:48;20.60;;;7.90;;
70829;SDS011;58451;51.550;7.208;2023-04-03T00:50:21;19.80;;;8.60;;
70829;SDS011;58451;51.550;7.208;2023-04-03T00:51:55;18.20;;;8.30;;
70829;SDS011;58451;51.550;7.208;2023-04-03T00:53:32;19.20;;;7.80;;
70829;SDS011;58451;51.550;7.208;2023-04-03T00:55:09;22.00;;;8.90;;
70829;SDS011;58451;51.550;7.208;2023-04-03T00:56:41;20.70;;;8.60;;
70829;SDS011;58451;51.550;7.208;2023-04-03T00:58:16;19.20;;;7.60;;
70829;SDS011;58451;51.550;7.208;2023-04-03T00:59:55;19.90;;;9.00;;
70829;SDS011;58451;51.550;7.208;2023-04-03T01:01:31;21.10;;;9.50;;
70829;SDS011;58451;51.550;7.208;2023-04-03T01:03:03;21.80;;;9.10;;
70829;SDS011;58451;51.550;7.208;2023-04-03T01:04:38;24.60;;;8.90;;
70829;SDS011;58451;51.550;7.208;2023-04-03T01:06:13;21.20;;;8.70;;
70829;SDS011;58451;51.550;7.208;2023-04-03T01:07:50;22.60;;;9.80;;
70829;SDS011;58451;51.550;7.208;2023-04-03T01:09:24;20.30;;;8.20;;
70829;SDS011;58451;51.550;7.208;2023-04-03T01:10:56;18.70;;;8.00;;
70829;SDS011;58451;51.550;7.208;2023-04-03T01:12:31;17.60;;;7.60;;
70829;SDS011;58451;51.550;7.208;2023-04-03T01:14:05;15.70;;;7.30;;
70829;SDS011;58451;51.550;7.208;2023-04-03T01:15:38;18.00;;;6.20;;
70829;SDS011;58451;51.550;7.208;2023-04-03T01:17:34;16.50;;;5.90;;
70829;SDS011;58451;51.550;7.208;2023-04-03T01:19:17;15.10;;;5.00;;
70829;SDS011;58451;51.550;7.208;2023-04-03T01:21:06;16.80;;;5.70;;
70829;SDS011;58451;51.550;7.208;2023-04-03T01:23:17;14.50;;;5.10;;
70829;SDS011;58451;51.550;7.208;2023-04-03T01:25:05;15.10;;;5.70;;
70829;SDS011;58451;51.550;7.208;2023-04-03T01:26:37;15.00;;;5.90;;
70829;SDS011;58451;51.550;7.208;2023-04-03T01:28:12;16.70;;;5.30;;
70829;SDS011;58451;51.550;7.208;2023-04-03T01:29:49;14.30;;;5.20;;
70829;SDS011;58451;51.550;7.208;2023-04-03T01:31:48;12.70;;;5.10;;
70829;SDS011;58451;51.550;7.208;2023-04-03T01:33:22;17.90;;;5.20;;
70829;SDS011;58451;51.550;7.208;2023-04-03T01:34:53;13.50;;;4.80;;
70829;SDS011;58451;51.550;7.208;2023-04-03T01:36:30;13.90;;;5.00;;
70829;SDS011;58451;51.550;7.208;2023-04-03T01:38:03;9.80;;;3.80;;
70829;SDS011;58451;51.550;7.208;2023-04-03T01:39:34;13.20;;;4.60;;
70829;SDS011;58451;51.550;7.208;2023-04-03T01:41:06;16.00;;;4.40;;
70829;SDS011;58451;51.550;7.208;2023-04-03T01:42:38;11.20;;;3.60;;
70829;SDS011;58451;51.550;7.208;2023-04-03T01:44:10;12.10;;;3.50;;
70829;SDS011;58451;51.550;7.208;2023-04-03T01:45:42;11.80;;;3.70;;
70829;SDS011;58451;51.550;7.208;2023-04-03T01:47:15;10.00;;;3.20;;
70829;SDS011;58451;51.550;7.208;2023-04-03T01:48:47;12.40;;;3.50;;
70829;SDS011;58451;51.550;7.208;2023-04-03T01:50:20;10.00;;;3.50;;
70829;SDS011;58451;51.550;7.208;2023-04-03T01:51:52;8.70;;;3.10;;
70829;SDS011;58451;51.550;7.208;2023-04-03T01:53:24;9.10;;;2.50;;
70829;SDS011;58451;51.550;7.208;2023-04-03T01:54:55;11.10;;;2.80;;
70829;SDS011;58451;51.550;7.208;2023-04-03T01:56:28;10.90;;;2.90;;
70829;SDS011;58451;51.550;7.208;2023-04-03T01:58:00;10.80;;;2.50;;
70829;SDS011;58451;51.550;7.208;2023-04-03T01:59:31;9.20;;;2.20;;
70829;SDS011;58451;51.550;7.208;2023-04-03T02:01:04;8.60;;;2.30;;
70829;SDS011;58451;51.550;7.208;2023-04-03T02:02:36;8.90;;;2.50;;
70829;SDS011;58451;51.550;7.208;2023-04-03T02:04:08;8.80;;;2.10;;
70829;SDS011;58451;51.550;7.208;2023-04-03T02:05:41;8.80;;;1.90;;
70829;SDS011;58451;51.550;7.208;2023-04-03T02:07:12;7.80;;;2.10;;
70829;SDS011;58451;51.550;7.208;2023-04-03T02:08:44;11.00;;;2.10;;
70829;SDS011;58451;51.550;7.208;2023-04-03T02:10:16;9.80;;;1.80;;
70829;SDS011;58451;51.550;7.208;2023-04-03T02:11:48;8.50;;;1.90;;
70829;SDS011;58451;51.550;7.208;2023-04-03T02:13:19;9.70;;;1.70;;
70829;SDS011;58451;51.550;7.208;2023-04-03T02:14:52;8.30;;;1.90;;
70829;SDS011;58451;51.550;7.208;2023-04-03T02:16:24;8.20;;;1.70;;
70829;SDS011;58451;51.550;7.208;2023-04-03T02:17:56;7.50;;;2.10;;
70829;SDS011;58451;51.550;7.208;2023-04-03T02:19:28;12.40;;;1.90;;
70829;SDS011;58451;51.550;7.208;2023-04-03T02:21:01;8.40;;;1.50;;
70829;SDS011;58451;51.550;7.208;2023-04-03T02:22:33;12.60;;;1.90;;
70829;SDS011;58451;51.550;7.208;2023-04-03T02:24:05;6.60;;;1.50;;
70829;SDS011;58451;51.550;7.208;2023-04-03T02:25:38;8.20;;;1.70;;
70829;SDS011;58451;51.550;7.208;2023-04-03T02:27:10;8.20;;;1.60;;
70829;SDS011;58451;51.550;7.208;2023-04-03T02:28:42;10.00;;;1.50;;
70829;SDS011;58451;51.550;7.208;2023-04-03T02:30:14;9.00;;;1.90;;
70829;SDS011;58451;51.550;7.208;2023-04-03T02:31:46;9.90;;;2.10;;
70829;SDS011;58451;51.550;7.208;2023-04-03T02:33:18;10.60;;;1.80;;
70829;SDS011;58451;51.550;7.208;2023-04-03T02:34:50;10.50;;;1.90;;
70829;SDS011;58451;51.550;7.208;2023-04-03T02:36:22;10.40;;;1.90;;
70829;SDS011;58451;51.550;7.208;2023-04-03T02:37:58;8.10;;;1.70;;
70829;SDS011;58451;51.550;7.208;2023-04-03T02:39:30;9.10;;;1.60;;
70829;SDS011;58451;51.550;7.208;2023-04-03T02:41:05;8.90;;;1.70;;
70829;SDS011;58451;51.550;7.208;2023-04-03T02:42:38;9.20;;;1.70;;
70829;SDS011;58451;51.550;7.208;2023-04-03T02:44:11;10.20;;;1.80;;
70829;SDS011;58451;51.550;7.208;2023-04-03T02:45:44;8.10;;;1.50;;
70829;SDS011;58451;51.550;7.208;2023-04-03T02:47:16;7.90;;;1.30;;
70829;SDS011;58451;51.550;7.208;2023-04-03T02:48:48;7.90;;;1.50;;
70829;SDS011;58451;51.550;7.208;2023-04-03T02:50:20;12.00;;;1.80;;
70829;SDS011;58451;51.550;7.208;2023-04-03T02:51:52;6.90;;;1.40;;
70829;SDS011;58451;51.550;7.208;2023-04-03T02:53:24;9.30;;;1.80;;
70829;SDS011;58451;51.550;7.208;2023-04-03T02:54:56;7.70;;;1.60;;
70829;SDS011;58451;51.550;7.208;2023-04-03T02:56:28;8.90;;;1.60;;
70829;SDS011;58451;51.550;7.208;2023-04-03T02:58:00;10.50;;;1.60;;
70829;SDS011;58451;51.550;7.208;2023-04-03T02:59:31;5.50;;;1.00;;
70829;SDS011;58451;51.550;7.208;2023-04-03T03:01:03;7.20;;;1.10;;
70829;SDS011;58451;51.550;7.208;2023-04-03T03:02:35;9.20;;;1.70;;
70829;SDS011;58451;51.550;7.208;2023-04-03T03:04:07;7.10;;;1.20;;
70829;SDS011;58451;51.550;7.208;2023-04-03T03:05:39;8.70;;;1.60;;
70829;SDS011;58451;51.550;7.208;2023-04-03T03:07:11;9.70;;;1.50;;
70829;SDS011;58451;51.550;7.208;2023-04-03T03:08:43;7.40;;;1.30;;
70829;SDS011;58451;51.550;7.208;2023-04-03T03:10:16;6.90;;;1.40;;
70829;SDS011;58451;51.550;7.208;2023-04-03T03:11:49;7.90;;;1.60;;
70829;SDS011;58451;51.550;7.208;2023-04-03T03:13:21;11.20;;;1.50;;
70829;SDS011;58451;51.550;7.208;2023-04-03T03:14:53;9.20;;;1.50;;
70829;SDS011;58451;51.550;7.208;2023-04-03T03:16:25;7.10;;;1.00;;
70829;SDS011;58451;51.550;7.208;2023-04-03T03:17:57;6.70;;;1.40;;
70829;SDS011;58451;51.550;7.208;2023-04-03T03:19:30;5.70;;;1.20;;
70829;SDS011;58451;51.550;7.208;2023-04-03T03:21:03;9.40;;;1.40;;
70829;SDS011;58451;51.550;7.208;2023-04-03T03:22:36;8.70;;;1.60;;
70829;SDS011;58451;51.550;7.208;2023-04-03T03:24:08;7.50;;;1.30;;
70829;SDS011;58451;51.550;7.208;2023-04-03T03:25:40;5.80;;;1.00;;
70829;SDS011;58451;51.550;7.208;2023-04-03T03:27:12;9.00;;;1.20;;
70829;SDS011;58451;51.550;7.208;2023-04-03T03:28:44;7.50;;;1.20;;
70829;SDS011;58451;51.550;7.208;2023-04-03T03:30:18;5.60;;;1.20;;
70829;SDS011;58451;51.550;7.208;2023-04-03T03:31:50;8.20;;;1.50;;
70829;SDS011;58451;51.550;7.208;2023-04-03T03:33:22;8.10;;;1.60;;
70829;SDS011;58451;51.550;7.208;2023-04-03T03:34:53;10.20;;;1.40;;
70829;SDS011;58451;51.550;7.208;2023-04-03T03:36:25;7.70;;;1.10;;
70829;SDS011;58451;51.550;7.208;2023-04-03T03:37:57;10.80;;;1.70;;
70829;SDS011;58451;51.550;7.208;2023-04-03T03:39:29;10.90;;;1.60;;
70829;SDS011;58451;51.550;7.208;2023-04-03T03:41:01;8.70;;;1.50;;
70829;SDS011;58451;51.550;7.208;2023-04-03T03:42:33;6.70;;;1.30;;
70829;SDS011;58451;51.550;7.208;2023-04-03T03:44:06;6.90;;;1.30;;
70829;SDS011;58451;51.550;7.208;2023-04-03T03:45:38;7.40;;;1.30;;
70829;SDS011;58451;51.550;7.208;2023-04-03T03:47:10;9.30;;;1.50;;
70829;SDS011;58451;51.550;7.208;2023-04-03T03:48:43;9.60;;;1.60;;
70829;SDS011;58451;51.550;7.208;2023-04-03T03:50:15;9.40;;;1.50;;
70829;SDS011;58451;51.550;7.208;2023-04-03T03:51:47;31.30;;;3.10;;
70829;SDS011;58451;51.550;7.208;2023-04-03T03:53:19;6.70;;;1.20;;
70829;SDS011;58451;51.550;7.208;2023-04-03T03:54:51;8.00;;;1.50;;
70829;SDS011;58451;51.550;7.208;2023-04-03T03:56:23;10.60;;;1.60;;
70829;SDS011;58451;51.550;7.208;2023-04-03T03:57:55;9.10;;;1.60;;
70829;SDS011;58451;51.550;7.208;2023-04-03T03:59:27;8.20;;;1.30;;
70829;SDS011;58451;51.550;7.208;2023-04-03T04:01:04;10.10;;;1.50;;
70829;SDS011;58451;51.550;7.208;2023-04-03T04:02:38;11.90;;;1.70;;
70829;SDS011;58451;51.550;7.208;2023-04-03T04:04:10;8.70;;;1.60;;
70829;SDS011;58451;51.550;7.208;2023-04-03T04:05:42;6.20;;;1.50;;
70829;SDS011;58451;51.550;7.208;2023-04-03T04:07:15;9.10;;;1.60;;
70829;SDS011;58451;51.550;7.208;2023-04-03T04:08:47;7.90;;;1.40;;
70829;SDS011;58451;51.550;7.208;2023-04-03T04:10:19;8.70;;;1.50;;
70829;SDS011;58451;51.550;7.208;2023-04-03T04:11:52;9.10;;;1.60;;
70829;SDS011;58451;51.550;7.208;2023-04-03T04:13:24;8.90;;;1.80;;
70829;SDS011;58451;51.550;7.208;2023-04-03T04:14:56;9.30;;;1.50;;
70829;SDS011;58451;51.550;7.208;2023-04-03T04:16:29;9.10;;;1.90;;
70829;SDS011;58451;51.550;7.208;2023-04-03T04:18:03;12.00;;;1.80;;
70829;SDS011;58451;51.550;7.208;2023-04-03T04:19:35;11.50;;;2.20;;
70829;SDS011;58451;51.550;7.208;2023-04-03T04:21:07;8.30;;;1.40;;
70829;SDS011;58451;51.550;7.208;2023-04-03T04:22:39;9.30;;;1.80;;
70829;SDS011;58451;51.550;7.208;2023-04-03T04:24:11;10.50;;;1.80;;
70829;SDS011;58451;51.550;7.208;2023-04-03T04:25:47;9.40;;;1.80;;
70829;SDS011;58451;51.550;7.208;2023-04-03T04:27:20;10.40;;;1.80;;
70829;SDS011;58451;51.550;7.208;2023-04-03T04:28:52;10.90;;;2.00;;
70829;SDS011;58451;51.550;7.208;2023-04-03T04:30:24;12.30;;;2.00;;
70829;SDS011;58451;51.550;7.208;2023-04-03T04:31:58;13.90;;;2.50;;
70829;SDS011;58451;51.550;7.208;2023-04-03T04:33:30;9.10;;;1.70;;
70829;SDS011;58451;51.550;7.208;2023-04-03T04:35:03;9.10;;;2.10;;
70829;SDS011;58451;51.550;7.208;2023-04-03T04:36:37;9.60;;;1.80;;
70829;SDS011;58451;51.550;7.208;2023-04-03T04:38:09;11.50;;;2.00;;
70829;SDS011;58451;51.550;7.208;2023-04-03T04:39:41;10.00;;;1.80;;
70829;SDS011;58451;51.550;7.208;2023-04-03T04:41:13;10.90;;;2.20;;
70829;SDS011;58451;51.550;7.208;2023-04-03T04:42:45;9.60;;;1.70;;
70829;SDS011;58451;51.550;7.208;2023-04-03T04:44:17;10.70;;;1.70;;
70829;SDS011;58451;51.550;7.208;2023-04-03T04:45:49;9.50;;;1.70;;
70829;SDS011;58451;51.550;7.208;2023-04-03T04:47:22;9.90;;;1.70;;
70829;SDS011;58451;51.550;7.208;2023-04-03T04:48:54;7.80;;;1.60;;
70829;SDS011;58451;51.550;7.208;2023-04-03T04:50:27;6.40;;;1.30;;
70829;SDS011;58451;51.550;7.208;2023-04-03T04:51:59;8.50;;;1.50;;
70829;SDS011;58451;51.550;7.208;2023-04-03T04:53:33;9.90;;;1.80;;
70829;SDS011;58451;51.550;7.208;2023-04-03T04:55:06;8.30;;;1.40;;
70829;SDS011;58451;51.550;7.208;2023-04-03T04:56:38;10.30;;;1.80;;
70829;SDS011;58451;51.550;7.208;2023-04-03T04:58:10;9.60;;;1.90;;
70829;SDS011;58451;51.550;7.208;2023-04-03T04:59:42;9.30;;;1.70;;
70829;SDS011;58451;51.550;7.208;2023-04-03T05:01:13;10.00;;;1.60;;
70829;SDS011;58451;51.550;7.208;2023-04-03T05:02:55;7.00;;;1.20;;
70829;SDS011;58451;51.550;7.208;2023-04-03T05:04:27;6.50;;;1.30;;
70829;SDS011;58451;51.550;7.208;2023-04-03T05:06:04;9.00;;;1.50;;
70829;SDS011;58451;51.550;7.208;2023-04-03T05:07:36;10.30;;;1.70;;
70829;SDS011;58451;51.550;7.208;2023-04-03T05:09:09;8.70;;;1.50;;
70829;SDS011;58451;51.550;7.208;2023-04-03T05:10:41;7.20;;;1.70;;
70829;SDS011;58451;51.550;7.208;2023-04-03T05:12:14;7.30;;;1.30;;
70829;SDS011;58451;51.550;7.208;2023-04-03T05:13:50;10.50;;;1.70;;
70829;SDS011;58451;51.550;7.208;2023-04-03T05:15:23;7.60;;;1.20;;
70829;SDS011;58451;51.550;7.208;2023-04-03T05:16:55;7.60;;;1.30;;
70829;SDS011;58451;51.550;7.208;2023-04-03T05:18:28;8.50;;;1.40;;
70829;SDS011;58451;51.550;7.208;2023-04-03T05:20:03;10.50;;;1.40;;
70829;SDS011;58451;51.550;7.208;2023-04-03T05:21:37;8.40;;;1.30;;
70829;SDS011;58451;51.550;7.208;2023-04-03T05:23:12;8.90;;;1.50;;
70829;SDS011;58451;51.550;7.208;2023-04-03T05:24:44;6.40;;;1.20;;
70829;SDS011;58451;51.550;7.208;2023-04-03T05:26:16;10.60;;;1.60;;
70829;SDS011;58451;51.550;7.208;2023-04-03T05:27:50;7.70;;;1.60;;
70829;SDS011;58451;51.550;7.208;2023-04-03T05:29:22;10.00;;;1.50;;
70829;SDS011;58451;51.550;7.208;2023-04-03T05:30:58;8.90;;;1.40;;
70829;SDS011;58451;51.550;7.208;2023-04-03T05:32:36;8.50;;;1.40;;
70829;SDS011;58451;51.550;7.208;2023-04-03T05:34:21;8.70;;;1.80;;
70829;SDS011;58451;51.550;7.208;2023-04-03T05:35:54;8.20;;;1.30;;
70829;SDS011;58451;51.550;7.208;2023-04-03T05:37:30;8.70;;;1.30;;
70829;SDS011;58451;51.550;7.208;2023-04-03T05:39:02;9.80;;;1.70;;
70829;SDS011;58451;51.550;7.208;2023-04-03T05:40:35;11.10;;;1.80;;
70829;SDS011;58451;51.550;7.208;2023-04-03T05:42:07;10.30;;;1.40;;
70829;SDS011;58451;51.550;7.208;2023-04-03T05:43:39;12.10;;;1.50;;
70829;SDS011;58451;51.550;7.208;2023-04-03T05:45:12;11.30;;;1.70;;
70829;SDS011;58451;51.550;7.208;2023-04-03T05:46:44;7.30;;;1.30;;
70829;SDS011;58451;51.550;7.208;2023-04-03T05:48:16;10.70;;;1.70;;
70829;SDS011;58451;51.550;7.208;2023-04-03T05:49:48;9.70;;;1.70;;
70829;SDS011;58451;51.550;7.208;2023-04-03T05:51:26;9.90;;;1.60;;
70829;SDS011;58451;51.550;7.208;2023-04-03T05:53:05;11.30;;;1.50;;
70829;SDS011;58451;51.550;7.208;2023-04-03T05:54:37;7.60;;;1.60;;
70829;SDS011;58451;51.550;7.208;2023-04-03T05:56:14;7.60;;;1.40;;
70829;SDS011;58451;51.550;7.208;2023-04-03T05:57:47;10.70;;;1.70;;
70829;SDS011;58451;51.550;7.208;2023-04-03T05:59:20;11.40;;;1.80;;
70829;SDS011;58451;51.550;7.208;2023-04-03T06:00:54;9.60;;;1.40;;
70829;SDS011;58451;51.550;7.208;2023-04-03T06:02:25;7.30;;;1.20;;
70829;SDS011;58451;51.550;7.208;2023-04-03T06:03:58;6.40;;;1.20;;
70829;SDS011;58451;51.550;7.208;2023-04-03T06:05:32;8.30;;;1.60;;
70829;SDS011;58451;51.550;7.208;2023-04-03T06:07:04;10.80;;;1.70;;
70829;SDS011;58451;51.550;7.208;2023-04-03T06:08:36;8.90;;;1.30;;
70829;SDS011;58451;51.550;7.208;2023-04-03T06:10:11;8.00;;;1.40;;
70829;SDS011;58451;51.550;7.208;2023-04-03T06:11:44;10.20;;;1.70;;
70829;SDS011;58451;51.550;7.208;2023-04-03T06:13:17;10.40;;;1.20;;
70829;SDS011;58451;51.550;7.208;2023-04-03T06:14:49;9.30;;;1.30;;
70829;SDS011;58451;51.550;7.208;2023-04-03T06:16:21;13.00;;;3.30;;
70829;SDS011;58451;51.550;7.208;2023-04-03T06:17:53;5.90;;;1.20;;
70829;SDS011;58451;51.550;7.208;2023-04-03T06:19:25;12.50;;;1.80;;
70829;SDS011;58451;51.550;7.208;2023-04-03T06:20:59;9.10;;;1.40;;
70829;SDS011;58451;51.550;7.208;2023-04-03T06:22:32;7.10;;;1.10;;
70829;SDS011;58451;51.550;7.208;2023-04-03T06:24:05;7.40;;;1.60;;
70829;SDS011;58451;51.550;7.208;2023-04-03T06:25:38;7.70;;;1.10;;
70829;SDS011;58451;51.550;7.208;2023-04-03T06:27:11;9.40;;;1.60;;
70829;SDS011;58451;51.550;7.208;2023-04-03T06:28:43;6.90;;;1.20;;
70829;SDS011;58451;51.550;7.208;2023-04-03T06:30:15;7.20;;;1.40;;
70829;SDS011;58451;51.550;7.208;2023-04-03T06:31:48;7.30;;;1.10;;
70829;SDS011;58451;51.550;7.208;2023-04-03T06:33:21;6.40;;;1.20;;
70829;SDS011;58451;51.550;7.208;2023-04-03T06:34:53;8.20;;;1.20;;
70829;SDS011;58451;51.550;7.208;2023-04-03T06:36:25;8.90;;;1.40;;
70829;SDS011;58451;51.550;7.208;2023-04-03T06:37:57;6.80;;;0.90;;
70829;SDS011;58451;51.550;7.208;2023-04-03T06:39:29;6.20;;;1.00;;
70829;SDS011;58451;51.550;7.208;2023-04-03T06:41:00;10.40;;;1.60;;
70829;SDS011;58451;51.550;7.208;2023-04-03T06:42:32;10.90;;;1.80;;
70829;SDS011;58451;51.550;7.208;2023-04-03T06:44:11;8.50;;;1.10;;
70829;SDS011;58451;51.550;7.208;2023-04-03T06:45:45;9.90;;;1.40;;
70829;SDS011;58451;51.550;7.208;2023-04-03T06:47:17;11.10;;;1.30;;
70829;SDS011;58451;51.550;7.208;2023-04-03T06:48:49;9.10;;;1.40;;
70829;SDS011;58451;51.550;7.208;2023-04-03T06:50:21;7.60;;;1.50;;
70829;SDS011;58451;51.550;7.208;2023-04-03T06:51:53;10.00;;;1.90;;
70829;SDS011;58451;51.550;7.208;2023-04-03T06:53:25;9.00;;;1.40;;
70829;SDS011;58451;51.550;7.208;2023-04-03T06:54:57;7.70;;;1.10;;
70829;SDS011;58451;51.550;7.208;2023-04-03T06:56:31;7.80;;;1.60;;
70829;SDS011;58451;51.550;7.208;2023-04-03T06:58:06;9.80;;;1.40;;
70829;SDS011;58451;51.550;7.208;2023-04-03T06:59:38;11.10;;;1.50;;
70829;SDS011;58451;51.550;7.208;2023-04-03T07:01:12;6.00;;;1.20;;
70829;SDS011;58451;51.550;7.208;2023-04-03T07:02:45;8.40;;;1.30;;
70829;SDS011;58451;51.550;7.208;2023-04-03T07:04:18;6.90;;;1.00;;
70829;SDS011;58451;51.550;7.208;2023-04-03T07:05:51;7.20;;;1.20;;
70829;SDS011;58451;51.550;7.208;2023-04-03T07:07:25;6.20;;;1.10;;
70829;SDS011;58451;51.550;7.208;2023-04-03T07:08:57;5.70;;;1.10;;
70829;SDS011;58451;51.550;7.208;2023-04-03T07:10:29;6.50;;;1.10;;
70829;SDS011;58451;51.550;7.208;2023-04-03T07:12:02;8.30;;;1.30;;
70829;SDS011;58451;51.550;7.208;2023-04-03T07:13:34;7.20;;;0.90;;
70829;SDS011;58451;51.550;7.208;2023-04-03T07:15:09;6.70;;;1.10;;
70829;SDS011;58451;51.550;7.208;2023-04-03T07:16:41;5.40;;;0.90;;
70829;SDS011;58451;51.550;7.208;2023-04-03T07:18:15;5.40;;;1.10;;
70829;SDS011;58451;51.550;7.208;2023-04-03T07:19:48;7.50;;;1.30;;
70829;SDS011;58451;51.550;7.208;2023-04-03T07:21:20;6.60;;;1.30;;
70829;SDS011;58451;51.550;7.208;2023-04-03T07:22:53;6.80;;;1.20;;
70829;SDS011;58451;51.550;7.208;2023-04-03T07:24:27;7.50;;;1.30;;
70829;SDS011;58451;51.550;7.208;2023-04-03T07:25:59;7.70;;;1.20;;
70829;SDS011;58451;51.550;7.208;2023-04-03T07:27:31;7.70;;;1.20;;
70829;SDS011;58451;51.550;7.208;2023-04-03T07:29:03;7.70;;;1.40;;
70829;SDS011;58451;51.550;7.208;2023-04-03T07:31:03;6.90;;;1.20;;
70829;SDS011;58451;51.550;7.208;2023-04-03T07:32:40;7.20;;;1.20;;
70829;SDS011;58451;51.550;7.208;2023-04-03T07:34:12;6.40;;;0.80;;
70829;SDS011;58451;51.550;7.208;2023-04-03T07:35:46;6.90;;;1.20;;
70829;SDS011;58451;51.550;7.208;2023-04-03T07:37:18;7.20;;;1.60;;
70829;SDS011;58451;51.550;7.208;2023-04-03T07:38:50;5.80;;;1.10;;
70829;SDS011;58451;51.550;7.208;2023-04-03T07:40:22;7.70;;;1.20;;
70829;SDS011;58451;51.550;7.208;2023-04-03T07:41:54;8.60;;;1.50;;
70829;SDS011;58451;51.550;7.208;2023-04-03T07:43:39;8.00;;;1.40;;
70829;SDS011;58451;51.550;7.208;2023-04-03T07:45:12;10.60;;;1.20;;
70829;SDS011;58451;51.550;7.208;2023-04-03T07:46:44;7.30;;;1.20;;
70829;SDS011;58451;51.550;7.208;2023-04-03T07:48:20;7.70;;;1.20;;
70829;SDS011;58451;51.550;7.208;2023-04-03T07:49:55;7.50;;;1.00;;
70829;SDS011;58451;51.550;7.208;2023-04-03T07:51:28;9.50;;;1.20;;
70829;SDS011;58451;51.550;7.208;2023-04-03T07:53:02;6.00;;;0.80;;
70829;SDS011;58451;51.550;7.208;2023-04-03T07:54:35;5.50;;;0.80;;
70829;SDS011;58451;51.550;7.208;2023-04-03T07:56:07;5.30;;;0.90;;
70829;SDS011;58451;51.550;7.208;2023-04-03T07:57:40;8.10;;;1.10;;
70829;SDS011;58451;51.550;7.208;2023-04-03T07:59:12;5.50;;;1.00;;
70829;SDS011;58451;51.550;7.208;2023-04-03T08:00:45;8.80;;;1.20;;
70829;SDS011;58451;51.550;7.208;2023-04-03T08:02:18;7.50;;;1.10;;
70829;SDS011;58451;51.550;7.208;2023-04-03T08:03:49;6.70;;;1.20;;
70829;SDS011;58451;51.550;7.208;2023-04-03T08:05:22;6.40;;;1.10;;
70829;SDS011;58451;51.550;7.208;2023-04-03T08:06:54;6.10;;;1.10;;
70829;SDS011;58451;51.550;7.208;2023-04-03T08:08:27;8.00;;;1.40;;
70829;SDS011;58451;51.550;7.208;2023-04-03T08:10:01;4.30;;;0.90;;
70829;SDS011;58451;51.550;7.208;2023-04-03T08:11:32;4.90;;;1.00;;
70829;SDS011;58451;51.550;7.208;2023-04-03T08:13:05;8.70;;;1.50;;
70829;SDS011;58451;51.550;7.208;2023-04-03T08:14:37;7.20;;;1.30;;
70829;SDS011;58451;51.550;7.208;2023-04-03T08:16:12;5.20;;;1.00;;
70829;SDS011;58451;51.550;7.208;2023-04-03T08:17:48;6.70;;;0.70;;
70829;SDS011;58451;51.550;7.208;2023-04-03T08:19:21;7.10;;;0.90;;
70829;SDS011;58451;51.550;7.208;2023-04-03T08:20:57;8.10;;;1.10;;
70829;SDS011;58451;51.550;7.208;2023-04-03T08:22:29;6.30;;;1.10;;
70829;SDS011;58451;51.550;7.208;2023-04-03T08:24:04;7.90;;;1.00;;
70829;SDS011;58451;51.550;7.208;2023-04-03T08:25:40;6.40;;;1.00;;
70829;SDS011;58451;51.550;7.208;2023-04-03T08:27:15;6.20;;;0.90;;
70829;SDS011;58451;51.550;7.208;2023-04-03T08:28:48;7.10;;;0.90;;
70829;SDS011;58451;51.550;7.208;2023-04-03T08:30:21;5.20;;;1.10;;
70829;SDS011;58451;51.550;7.208;2023-04-03T08:31:53;5.90;;;1.00;;
70829;SDS011;58451;51.550;7.208;2023-04-03T08:33:25;7.50;;;1.10;;
70829;SDS011;58451;51.550;7.208;2023-04-03T08:34:57;5.40;;;0.90;;
70829;SDS011;58451;51.550;7.208;2023-04-03T08:36:32;9.10;;;1.20;;
70829;SDS011;58451;51.550;7.208;2023-04-03T08:38:04;7.20;;;1.10;;
70829;SDS011;58451;51.550;7.208;2023-04-03T08:39:38;5.90;;;1.20;;
70829;SDS011;58451;51.550;7.208;2023-04-03T08:43:36;5.40;;;0.80;;
70829;SDS011;58451;51.550;7.208;2023-04-03T08:49:37;4.80;;;1.00;;
70829;SDS011;58451;51.550;7.208;2023-04-03T08:51:22;4.70;;;0.70;;
70829;SDS011;58451;51.550;7.208;2023-04-03T08:52:59;8.10;;;0.90;;
70829;SDS011;58451;51.550;7.208;2023-04-03T08:56:36;5.00;;;0.50;;
70829;SDS011;58451;51.550;7.208;2023-04-03T08:58:24;4.20;;;0.50;;
70829;SDS011;58451;51.550;7.208;2023-04-03T09:00:09;5.80;;;0.90;;
70829;SDS011;58451;51.550;7.208;2023-04-03T09:01:49;3.50;;;0.60;;
70829;SDS011;58451;51.550;7.208;2023-04-03T09:03:23;3.60;;;0.50;;
70829;SDS011;58451;51.550;7.208;2023-04-03T09:04:55;5.10;;;0.60;;
70829;SDS011;58451;51.550;7.208;2023-04-03T09:06:45;5.30;;;0.70;;
70829;SDS011;58451;51.550;7.208;2023-04-03T09:10:37;5.80;;;0.80;;
70829;SDS011;58451;51.550;7.208;2023-04-03T09:12:39;4.00;;;0.50;;
70829;SDS011;58451;51.550;7.208;2023-04-03T09:14:39;4.70;;;0.70;;
70829;SDS011;58451;51.550;7.208;2023-04-03T09:18:30;5.40;;;0.50;;
70829;SDS011;58451;51.550;7.208;2023-04-03T09:24:00;2.80;;;0.30;;
70829;SDS011;58451;51.550;7.208;2023-04-03T09:25:37;4.90;;;0.50;;
70829;SDS011;58451;51.550;7.208;2023-04-03T09:27:12;4.10;;;0.60;;
70829;SDS011;58451;51.550;7.208;2023-04-03T09:28:45;4.20;;;0.40;;
70829;SDS011;58451;51.550;7.208;2023-04-03T09:30:24;3.70;;;0.50;;
70829;SDS011;58451;51.550;7.208;2023-04-03T09:32:00;3.30;;;0.60;;
70829;SDS011;58451;51.550;7.208;2023-04-03T09:33:34;3.60;;;0.50;;
70829;SDS011;58451;51.550;7.208;2023-04-03T09:35:18;5.40;;;0.80;;
70829;SDS011;58451;51.550;7.208;2023-04-03T09:37:01;4.70;;;0.50;;
70829;SDS011;58451;51.550;7.208;2023-04-03T09:38:38;4.20;;;0.60;;
70829;SDS011;58451;51.550;7.208;2023-04-03T09:40:33;3.60;;;0.50;;